Pays
Station

 

Conditions  météo  pour  Springbok  -  Afrique Du Sud    Afrique Du Sud

  
26 °C
    
 
 

METAR pour Springbok :

FASB 220752Z 25004KT CAVOK 26/M00 Q1019

 

Voici le bulletin pour Springbok - Afrique Du Sud.
 
Le bulletin a été fait il y a 8 heures et 25 minutes, à 07:52 UTC .
Le vent soufflait à la vitesse de 2.1 mètres par seconde de Ouest/Sud-ouest (250°).
 
La température était de 26 °C
La pression atmosphérique était de 1019 hPa.
Il y avait pas de nuages en-dessous de 1500 mètres et pas de cumulonimbus.
 
La visibilité globale était de supérieure à 10 kilomètres.
 

 
 
 

Pays :   A   B   C   D   E   F   G   H   I   J   K   L   M   N   O   P   Q   R   S   T   U   V   W   Y   Z

 

Partenaires :  Info Météo avec Met'info
Météo Marine avec MeteoMarine.net
Infos Site  |  Infos Légales  |  Crédits  |  Confidentialité
Contactez-nous  |  Ajouter aux favoris
© 2013-2019 METAR - Tous droits réservés